LavenderCAM.net
Leatherhead Weather
 
Leatherhead Weather
 
 





Aviation weather for

London Heathrow (EGLL) and London Gatwick (EGKK)



London Heathrow (EGLL) METAR / Surface Actual
London / Heathrow Airport, United Kingdom (EGLL) 51-29N 000-27W 0M
Jun 24, 2021 - 07:20 PM EDT / 2021.06.24 2320 UTC
Wind: from the SW (230 degrees) at 9 MPH (8 KT):0
Visibility: greater than 7 mile(s):0
Temperature: 62 F (17 C)
Dew Point: 57 F (14 C)
Relative Humidity: 82%
Pressure (altimeter): 30.06 in. Hg (1018 hPa)
ob: EGLL 242320Z AUTO 23008KT 9999 NCD 17/14 Q1018 NOSIG
cycle: 23
London Heathrow (EGLL) TAF / Forecast
2021/06/24 18:07
TAF EGLL 241654Z 2418/2524 25008KT 9999 SCT022 PROB30 
      TEMPO 2418/2424 7000 SHRA 
      TEMPO 2500/2510 7000 -RA PROB30 
      TEMPO 2500/2510 4000 RA 
      TEMPO 2503/2510 BKN006


London Gatwick (EGKK) METAR / Surface Actual
London / Gatwick Airport, United Kingdom (EGKK) 51-09N 000-11W 0M
Jun 24, 2021 - 07:20 PM EDT / 2021.06.24 2320 UTC
Wind: from the SSW (210 degrees) at 6 MPH (5 KT):0
Visibility: greater than 7 mile(s):0
Temperature: 60 F (16 C)
Dew Point: 55 F (13 C)
Relative Humidity: 82%
Pressure (altimeter): 30.09 in. Hg (1019 hPa)
ob: EGKK 242320Z 21005KT CAVOK 16/13 Q1019
cycle: 23
London Gatwick (EGKK) TAF / Forecast
2021/06/24 18:09
TAF EGKK 241655Z 2418/2524 25009KT 9999 SCT030 PROB30 
      TEMPO 2418/2503 7000 -SHRA BKN014 
      TEMPO 2503/2510 6000 RA BKN009 PROB30 
      TEMPO 2503/2508 4000 +RA 
      TEMPO 2510/2512 BKN009 PROB30 
      TEMPO 2512/2518 6000 SHRA